Flight Track Log - Related Links

Times and Time Zones

All times are in EST time to prevent confusion due to time zone crossing. See the FIN666 flight status page for this flight to view local times or setup timezone preferences in your user account.


Time Position Orientation Groundspeed Altitude Reporting Facility
EST Latitude Longitude Course Direction KTS MPH feet Rate Location/Type
Fri 07:24:00 AM 55.9343 13.3125 49° Northeast  Level Estimated
Fri 07:25:00 AM 56.0129 13.4784 50° Northeast  Level Estimated
Fri 07:26:00 AM 56.0912 13.6449 50° Northeast  Level Estimated
Fri 07:27:00 AM 56.1693 13.8120 50° Northeast  Level Estimated
Fri 07:28:00 AM 56.2484 13.9825 50° Northeast  Level Estimated
Fri 07:29:00 AM 56.3273 14.1536 50° Northeast  Level Estimated
Fri 07:30:00 AM 56.4059 14.3255 50° Northeast  Level Estimated
Fri 07:31:00 AM 56.4842 14.4980 51° Northeast  Level Estimated
Fri 07:32:00 AM 56.5624 14.6713 51° Northeast  Level Estimated
Fri 07:33:00 AM 56.6403 14.8453 51° Northeast  Level Estimated
Fri 07:34:00 AM 56.7179 15.0200 51° Northeast  Level Estimated
Fri 07:35:00 AM 56.7953 15.1954 51° Northeast  Level Estimated
Fri 07:36:00 AM 56.8725 15.3716 51° Northeast  Level Estimated
Fri 07:37:00 AM 56.9494 15.5485 51° Northeast  Level Estimated
Fri 07:38:00 AM 57.0272 15.7288 52° Northeast  Level Estimated
Fri 07:39:00 AM 57.1048 15.9100 52° Northeast  Level Estimated
Fri 07:40:00 AM 57.1821 16.0919 52° Northeast  Level Estimated
Fri 07:41:00 AM 57.2592 16.2746 52° Northeast  Level Estimated
Fri 07:42:00 AM 57.3360 16.4580 52° Northeast  Level Estimated
Fri 07:43:00 AM 57.4125 16.6422 52° Northeast  Level Estimated
Fri 07:44:00 AM 57.4888 16.8272 52° Northeast  Level Estimated
Fri 07:45:00 AM 57.5647 17.0129 53° Northeast  Level Estimated
Fri 07:46:00 AM 57.6404 17.1994 53° Northeast  Level Estimated
Fri 07:47:00 AM 57.7159 17.3867 53° Northeast  Level Estimated
Fri 07:48:00 AM 57.7910 17.5748 53° Northeast  Level Estimated
Fri 07:49:00 AM 57.8659 17.7637 53° Northeast  Level Estimated
Fri 07:50:00 AM 57.9405 17.9533 53° Northeast  Level Estimated
Fri 07:51:00 AM 58.0148 18.1438 54° Northeast  Level Estimated
Fri 07:52:00 AM 58.0889 18.3350 54° Northeast  Level Estimated
Fri 07:53:00 AM 58.1626 18.5270 54° Northeast  Level Estimated
Fri 07:54:00 AM 58.2360 18.7198 54° Northeast  Level Estimated
Fri 07:55:00 AM 58.3092 18.9135 54° Northeast  Level Estimated
Fri 07:56:00 AM 58.3821 19.1079 54° Northeast  Level Estimated
Fri 07:57:00 AM 58.4546 19.3031 55° Northeast  Level Estimated
Fri 07:58:00 AM 58.5269 19.4991 55° Northeast  Level Estimated
Fri 07:59:00 AM 58.5989 19.6959 55° Northeast  Level Estimated
Fri 08:00:00 AM 58.6706 19.8936 55° Northeast  Level Estimated
Fri 08:01:00 AM 58.7419 20.0921 55° Northeast  Level Estimated
Fri 08:02:00 AM 58.8130 20.2913 55° Northeast  Level Estimated
Fri 08:03:00 AM 58.8837 20.4914 56° Northeast  Level Estimated
Fri 08:04:00 AM 58.9542 20.6923 56° Northeast  Level Estimated
Fri 08:05:00 AM 59.0243 20.8940 56° Northeast  Level Estimated
Fri 08:06:00 AM 59.0941 21.0966 56° Northeast  Level Estimated
Fri 08:07:00 AM 59.1636 21.3000 56° Northeast  Level Estimated
Fri 08:08:00 AM 59.2328 21.5042 56° Northeast  Level Estimated
Fri 08:09:00 AM 59.3016 21.7092 57° Northeast  Level Estimated
Fri 08:10:00 AM 59.3702 21.9151 57° Northeast  Level Estimated
Fri 08:11:00 AM 59.4384 22.1217 57° Northeast  Level Estimated
Fri 08:12:00 AM 59.5062 22.3293 57° Northeast  Level Estimated
Fri 08:13:00 AM 59.5738 22.5376 57° Northeast  Level Estimated
Fri 08:14:00 AM 59.6410 22.7468 57° Northeast  Level Estimated
Fri 08:15:00 AM 59.7079 22.9568 58° Northeast  Level Estimated
Fri 08:16:00 AM 59.7744 23.1677 58° Northeast  Level Estimated
Fri 08:17:00 AM 59.8407 23.3794 58° Northeast  Level Estimated
Fri 08:18:00 AM 59.9065 23.5920 58° Northeast  Level Estimated
Fri 08:19:00 AM 59.9720 23.8054 58° Northeast  Level Estimated
Fri 08:20:00 AM 60.0372 24.0196 59° Northeast  Level Estimated
Fri 08:21:00 AM 60.1021 24.2347 59° Northeast  Level Estimated
Fri 08:22:00 AM 60.1665 24.4506 59° Northeast  Level Estimated
Fri 08:23:00 AM 60.2307 24.6674 59° Northeast  Level Estimated
Fri 08:24:00 AM 60.2944 24.8850 59° Northeast  Level Estimated
Fri 08:25:00 AM 60.3172 24.9633 60° Northeast  Level Estimated
Fri 08:26:00 AM 60.3172 24.9633 37° Northeast  Level Estimated
Fri 08:27:00 AM 60.3172 24.9633 37° Northeast  Level Estimated
Fri 08:28:00 AM 60.3172 24.9633 37° Northeast  Level Estimated
Fri 08:29:00 AM 60.3172 24.9633 37° Northeast  Level Estimated
Fri 08:30:00 AM 60.3172 24.9633 37° Northeast  Level Estimated
Fri 08:31:00 AM 60.3172 24.9633 37° Northeast  Level Estimated
Fri 08:32:00 AM 60.3172 24.9633 37° Northeast  Level Estimated

Login

Don't have an account? Register now (free) for customized features, flight alerts, and more!